Time;durP1;ratioP1;P1;durP2;ratioP2;P2;SDS_P1;SDS_P2;PMS_P1;PMS_P2;Temp;Humidity;BMP_temperature;BMP_pressure;BME280_temperature;BME280_humidity;BME280_pressure;Samples;Min_cycle;Max_cycle;Signal;HPM_P1;HPM_P2
2022/10/19 00:01:50;;;;;;;10.57;2.13;;;10.20;99.90;;;;;;5137617;27;20058;-76
2022/10/19 00:04:16;;;;;;;17.73;2.63;;;10.10;99.90;;;;;;5155232;27;20075;-77
2022/10/19 00:06:43;;;;;;;6.40;2.00;;;10.00;99.90;;;;;;5121024;27;20049;-79
2022/10/19 00:09:14;;;;;;;7.43;2.08;;;9.90;99.90;;;;;;5156952;27;20061;-77
2022/10/19 00:11:43;;;;;;;9.15;2.15;;;9.80;99.90;;;;;;5156282;27;20043;-77
2022/10/19 00:14:13;;;;;;;11.35;2.15;;;9.70;99.90;;;;;;5138731;27;20039;-77
2022/10/19 00:16:39;;;;;;;8.32;2.03;;;9.60;99.90;;;;;;5120702;27;20051;-78
2022/10/19 00:19:10;;;;;;;7.00;2.00;;;9.60;99.90;;;;;;5157378;27;20035;-78
2022/10/19 00:21:37;;;;;;;9.20;1.95;;;9.50;99.90;;;;;;5125643;27;20042;-77
2022/10/19 00:24:04;;;;;;;11.90;2.42;;;9.40;99.90;;;;;;5164903;27;20046;-77
2022/10/19 00:26:30;;;;;;;8.40;2.50;;;9.30;99.90;;;;;;5143236;27;20106;-81
2022/10/19 00:28:56;;;;;;;8.32;2.35;;;9.30;99.90;;;;;;5122519;27;20305;-78
2022/10/19 00:31:23;;;;;;;16.88;2.38;;;9.20;99.90;;;;;;5138230;27;20386;-79
2022/10/19 00:33:49;;;;;;;9.52;2.22;;;9.10;99.90;;;;;;5155832;27;20050;-78
2022/10/19 00:36:28;;;;;;;8.63;2.50;;;9.00;99.90;;;;;;5156892;27;20051;-77
2022/10/19 00:38:55;;;;;;;10.82;2.78;;;9.00;99.90;;;;;;5137525;27;20047;-80
2022/10/19 00:41:23;;;;;;;11.65;2.38;;;9.00;99.90;;;;;;5138305;27;20050;-81
2022/10/19 00:44:15;;;;;;;9.40;2.05;;;8.90;99.90;;;;;;5137514;27;20069;-79
2022/10/19 00:46:43;;;;;;;9.23;2.20;;;8.80;99.90;;;;;;5081695;27;20066;-79
2022/10/19 00:49:17;;;;;;;9.82;2.15;;;8.80;99.90;;;;;;5156155;27;20047;-80
2022/10/19 00:51:48;;;;;;;6.50;2.40;;;8.70;99.90;;;;;;5157323;27;20043;-79
2022/10/19 00:54:16;;;;;;;11.02;2.63;;;8.70;99.90;;;;;;5158301;27;20038;-78
2022/10/19 00:56:43;;;;;;;9.50;2.58;;;8.60;99.90;;;;;;5105070;27;20047;-78
2022/10/19 00:59:09;;;;;;;;;;;8.60;99.90;;;;;;5104931;27;20043;-78
2022/10/19 01:01:35;;;;;;;8.10;2.37;;;8.60;99.90;;;;;;5138539;27;19931;-79
2022/10/19 01:04:03;;;;;;;7.55;2.60;;;8.60;99.90;;;;;;5136934;27;20125;-79
2022/10/19 01:06:29;;;;;;;10.18;2.67;;;8.50;99.90;;;;;;5155279;27;20046;-79
2022/10/19 01:08:55;;;;;;;10.20;2.28;;;8.40;99.90;;;;;;5137250;27;20438;-79
2022/10/19 01:11:41;;;;;;;10.88;2.70;;;8.40;99.90;;;;;;5155931;27;20047;-78
2022/10/19 01:14:48;;;;;;;8.88;2.78;;;8.40;99.90;;;;;;5137322;27;20050;-78
2022/10/19 01:17:41;;;;;;;8.48;2.08;;;8.30;99.90;;;;;;5126931;27;20055;-78
2022/10/19 01:20:33;;;;;;;13.82;3.00;;;8.30;99.90;;;;;;5139538;27;20043;-78
2022/10/19 01:23:17;;;;;;;11.85;1.63;;;8.30;99.90;;;;;;5166735;27;20046;-79
2022/10/19 01:26:01;;;;;;;11.70;2.35;;;8.20;99.90;;;;;;5171633;27;20234;-76
2022/10/19 01:28:44;;;;;;;10.38;2.20;;;8.20;99.90;;;;;;5170355;27;20050;-77
2022/10/19 01:31:28;;;;;;;10.95;2.30;;;8.20;99.90;;;;;;5164659;27;20046;-78
2022/10/19 01:34:12;;;;;;;6.93;1.98;;;8.20;99.90;;;;;;5139223;27;20042;-78
2022/10/19 01:36:50;;;;;;;7.22;2.03;;;8.20;99.90;;;;;;5156786;27;20436;-79
2022/10/19 01:39:24;;;;;;;8.00;2.28;;;8.10;99.90;;;;;;5155627;27;20039;-79
2022/10/19 01:42:15;;;;;;;9.52;2.08;;;8.20;99.90;;;;;;5136583;27;20042;-78
2022/10/19 01:45:12;;;;;;;16.92;2.45;;;8.30;99.90;;;;;;5155684;27;20047;-79
2022/10/19 01:47:47;;;;;;;10.02;2.20;;;8.40;99.90;;;;;;5136869;27;20043;-79
2022/10/19 01:50:39;;;;;;;11.55;2.00;;;8.50;99.90;;;;;;5136367;27;20046;-80
2022/10/19 01:53:08;;;;;;;8.63;2.10;;;8.50;99.90;;;;;;5131692;27;20461;-79
2022/10/19 01:55:38;;;;;;;6.72;1.88;;;8.50;99.90;;;;;;5136254;27;20055;-78
2022/10/19 01:58:08;;;;;;;8.05;2.13;;;8.60;99.90;;;;;;5154618;27;20130;-79
2022/10/19 02:00:38;;;;;;;13.32;2.47;;;8.70;99.90;;;;;;5136275;27;20046;-78
2022/10/19 02:03:05;;;;;;;6.55;2.10;;;8.70;99.90;;;;;;5155111;27;20126;-78
2022/10/19 02:05:33;;;;;;;11.15;2.40;;;8.80;99.90;;;;;;5118819;27;20133;-78
2022/10/19 02:08:03;;;;;;;6.72;2.60;;;8.80;99.90;;;;;;5154473;27;20053;-77
2022/10/19 02:10:31;;;;;;;6.88;2.30;;;8.90;99.90;;;;;;5154956;27;20046;-77
2022/10/19 02:12:58;;;;;;;11.32;2.33;;;8.90;99.90;;;;;;5154278;27;20388;-78
2022/10/19 02:15:26;;;;;;;9.88;3.38;;;8.90;99.90;;;;;;5136475;27;20054;-80
2022/10/19 02:17:58;;;;;;;11.35;2.78;;;8.90;99.90;;;;;;5136705;27;20047;-80
2022/10/19 02:20:26;;;;;;;13.05;2.55;;;8.90;99.90;;;;;;5154737;27;20488;-79
2022/10/19 02:22:51;;;;;;;9.90;2.65;;;9.00;99.90;;;;;;5154420;27;20051;-78
2022/10/19 02:25:18;;;;;;;12.88;2.58;;;9.00;99.90;;;;;;5154410;27;20445;-79
2022/10/19 02:27:44;;;;;;;6.32;1.83;;;9.10;99.90;;;;;;5139204;27;20050;-79
2022/10/19 02:30:16;;;;;;;8.90;2.15;;;9.10;99.90;;;;;;5139939;27;20039;-80
2022/10/19 02:32:50;;;;;;;16.17;2.50;;;9.10;99.90;;;;;;5112061;27;20069;-80
2022/10/19 02:35:16;;;;;;;5.38;1.70;;;9.20;99.90;;;;;;5140356;27;20050;-80
2022/10/19 02:37:43;;;;;;;9.40;2.38;;;9.20;99.90;;;;;;5141143;27;20043;-78
2022/10/19 02:40:09;;;;;;;12.18;2.10;;;9.30;99.90;;;;;;5158303;27;20050;-79
2022/10/19 02:42:43;;;;;;;15.13;2.05;;;9.30;99.90;;;;;;5139355;27;20046;-78
2022/10/19 02:45:18;;;;;;;15.15;2.22;;;9.30;99.90;;;;;;5158451;27;20052;-79
2022/10/19 02:47:53;;;;;;;11.13;1.77;;;9.20;99.90;;;;;;5157451;27;20479;-79
2022/10/19 02:50:20;;;;;;;9.55;1.95;;;9.20;99.90;;;;;;5139738;27;20039;-79
2022/10/19 02:52:45;;;;;;;7.88;1.88;;;9.20;99.90;;;;;;5139459;27;20051;-79
2022/10/19 02:55:11;;;;;;;8.57;1.77;;;9.20;99.90;;;;;;5123117;27;20073;-79
2022/10/19 02:57:37;;;;;;;13.25;1.83;;;9.20;99.90;;;;;;5157873;27;20038;-79
2022/10/19 03:00:07;;;;;;;12.23;1.75;;;9.10;99.90;;;;;;5139486;27;20125;-78
2022/10/19 03:02:33;;;;;;;10.27;2.20;;;9.10;99.90;;;;;;5157652;27;20126;-79
2022/10/19 03:04:58;;;;;;;8.70;2.63;;;9.10;99.90;;;;;;5157728;27;20133;-79
2022/10/19 03:07:24;;;;;;;6.18;2.08;;;9.10;99.90;;;;;;5139062;27;20089;-80
2022/10/19 03:09:50;;;;;;;9.68;2.50;;;9.10;99.90;;;;;;5139546;27;20440;-80
2022/10/19 03:12:16;;;;;;;11.30;2.13;;;9.10;99.90;;;;;;5158181;27;20053;-81
2022/10/19 03:14:42;;;;;;;7.30;1.75;;;9.20;99.90;;;;;;5157874;27;20038;-78
2022/10/19 03:17:08;;;;;;;10.60;1.95;;;9.20;99.90;;;;;;5157616;27;20038;-80
2022/10/19 03:19:35;;;;;;;13.45;2.50;;;9.20;99.90;;;;;;5158138;27;20043;-79
2022/10/19 03:22:01;;;;;;;9.02;1.90;;;9.20;99.90;;;;;;5158420;27;20051;-79
2022/10/19 03:24:28;;;;;;;13.38;2.20;;;9.20;99.90;;;;;;5123038;27;20057;-79
2022/10/19 03:26:54;;;;;;;10.45;2.90;;;9.20;99.90;;;;;;5157086;27;20090;-79
2022/10/19 03:29:19;;;;;;;7.03;1.98;;;9.20;99.90;;;;;;5157186;27;20039;-79
2022/10/19 03:31:45;;;;;;;15.68;2.50;;;9.30;99.90;;;;;;5157666;27;20039;-79
2022/10/19 03:34:11;;;;;;;12.60;1.90;;;9.30;99.90;;;;;;5138144;27;20367;-79
2022/10/19 03:36:38;;;;;;;11.75;2.17;;;9.30;99.90;;;;;;5156687;27;20074;-79
2022/10/19 03:39:15;;;;;;;7.90;2.13;;;9.30;99.90;;;;;;5155541;27;20159;-80
2022/10/19 03:41:41;;;;;;;6.47;2.30;;;9.30;99.90;;;;;;5157013;27;20081;-79
2022/10/19 03:44:08;;;;;;;8.70;2.37;;;9.30;99.90;;;;;;5157230;27;20073;-79
2022/10/19 03:46:35;;;;;;;13.27;4.25;;;9.40;99.90;;;;;;5156530;27;20045;-80
2022/10/19 03:49:01;;;;;;;10.75;2.53;;;9.40;99.90;;;;;;5156692;27;20042;-79
2022/10/19 03:51:28;;;;;;;6.77;2.20;;;9.50;99.90;;;;;;5158282;27;20068;-80
2022/10/19 03:53:58;;;;;;;9.23;2.05;;;9.50;99.90;;;;;;5156586;27;20374;-80
2022/10/19 03:56:26;;;;;;;10.02;2.17;;;9.50;99.90;;;;;;5137984;27;20424;-79
2022/10/19 03:58:54;;;;;;;11.45;2.47;;;9.50;99.90;;;;;;5137695;27;20039;-79
2022/10/19 04:01:25;;;;;;;9.07;2.50;;;9.50;99.90;;;;;;5137837;27;20050;-79
2022/10/19 04:03:59;;;;;;;13.35;2.65;;;9.50;99.90;;;;;;5156316;27;20042;-79
2022/10/19 04:06:34;;;;;;;11.02;2.03;;;9.50;99.90;;;;;;5139063;27;20038;-79
2022/10/19 04:09:00;;;;;;;9.65;2.05;;;9.50;99.90;;;;;;5138857;27;20050;-79
2022/10/19 04:11:28;;;;;;;9.68;2.17;;;9.50;99.90;;;;;;5137859;27;20042;-79
2022/10/19 04:13:55;;;;;;;13.57;2.05;;;9.50;99.90;;;;;;5157046;27;20084;-80
2022/10/19 04:16:22;;;;;;;13.73;2.40;;;9.60;99.90;;;;;;5156026;27;20078;-79
2022/10/19 04:18:48;;;;;;;11.32;1.95;;;9.60;99.90;;;;;;5156296;27;20190;-79
2022/10/19 04:21:30;;;;;;;10.05;2.25;;;9.60;99.90;;;;;;5137934;27;20582;-80
2022/10/19 04:24:03;;;;;;;13.23;2.30;;;9.60;99.90;;;;;;5150894;27;20038;-80
2022/10/19 04:26:29;;;;;;;9.07;2.05;;;9.70;99.90;;;;;;5172832;27;20115;-80
2022/10/19 04:28:59;;;;;;;13.85;2.50;;;9.60;99.90;;;;;;5153319;27;20051;-77
2022/10/19 04:31:27;;;;;;;14.82;2.67;;;9.70;99.90;;;;;;5164812;27;20078;-77
2022/10/19 04:33:52;;;;;;;;;;;9.70;99.90;;;;;;5142580;27;20145;-76
2022/10/19 04:36:18;;;;;;;10.13;2.00;;;9.70;99.90;;;;;;5158710;27;20035;-77
2022/10/19 04:38:44;;;;;;;8.90;2.10;;;9.70;99.90;;;;;;5156040;27;20125;-79
2022/10/19 04:41:13;;;;;;;6.65;1.40;;;9.70;99.90;;;;;;5120589;27;20046;-77
2022/10/19 04:43:39;;;;;;;9.32;1.88;;;9.60;99.90;;;;;;5137350;27;20058;-77
2022/10/19 04:46:10;;;;;;;9.30;2.83;;;9.50;99.90;;;;;;5155467;27;20039;-77
2022/10/19 04:48:37;;;;;;;9.40;1.73;;;9.60;99.90;;;;;;5155298;27;20065;-78
2022/10/19 04:51:04;;;;;;;5.75;1.90;;;9.60;99.90;;;;;;5137065;27;20039;-78
2022/10/19 04:53:30;;;;;;;11.85;2.10;;;9.60;99.90;;;;;;5155230;27;20173;-78
2022/10/19 04:55:56;;;;;;;12.63;2.85;;;9.60;99.90;;;;;;5155302;27;20050;-78
2022/10/19 04:58:22;;;;;;;14.63;2.45;;;9.60;99.90;;;;;;5137155;27;20050;-77
2022/10/19 05:00:48;;;;;;;11.53;2.47;;;9.60;99.90;;;;;;5155024;27;20039;-77
2022/10/19 05:03:14;;;;;;;14.10;3.03;;;9.70;99.90;;;;;;5155744;27;20047;-82
2022/10/19 05:05:40;;;;;;;10.50;2.55;;;9.70;99.90;;;;;;5155097;27;20411;-77
2022/10/19 05:08:06;;;;;;;11.52;3.08;;;9.70;99.90;;;;;;5137485;27;20047;-77
2022/10/19 05:10:32;;;;;;;9.70;2.83;;;9.70;99.90;;;;;;5155092;27;20125;-79
2022/10/19 05:13:00;;;;;;;11.25;2.72;;;9.70;99.90;;;;;;5119431;27;20444;-79
2022/10/19 05:15:26;;;;;;;13.40;3.00;;;9.70;99.90;;;;;;5155238;27;20077;-78
2022/10/19 05:17:52;;;;;;;11.45;2.50;;;9.70;99.90;;;;;;5136637;27;20089;-77
2022/10/19 05:20:18;;;;;;;9.53;1.77;;;9.70;99.90;;;;;;5154955;27;20070;-78
2022/10/19 05:22:44;;;;;;;9.93;2.00;;;9.70;99.90;;;;;;5155076;27;20281;-78
2022/10/19 05:25:09;;;;;;;11.73;1.65;;;9.60;99.90;;;;;;5154857;27;20068;-77
2022/10/19 05:27:35;;;;;;;13.52;2.63;;;9.50;99.90;;;;;;5136361;27;20058;-78
2022/10/19 05:30:01;;;;;;;10.02;1.88;;;9.50;99.90;;;;;;5155024;27;20039;-78
2022/10/19 05:32:27;;;;;;;10.18;2.50;;;9.50;99.90;;;;;;5120223;27;20050;-78
2022/10/19 05:34:53;;;;;;;12.13;2.30;;;9.40;99.90;;;;;;5156817;27;20043;-77
2022/10/19 05:37:20;;;;;;;8.35;2.15;;;9.40;99.90;;;;;;5120093;27;20119;-79
2022/10/19 05:39:46;;;;;;;8.57;1.50;;;9.40;99.90;;;;;;5155203;27;20059;-77
2022/10/19 05:42:11;;;;;;;9.18;1.90;;;9.30;99.90;;;;;;5102141;27;20042;-77
2022/10/19 05:44:37;;;;;;;9.63;1.92;;;9.30;99.90;;;;;;5155042;27;20047;-77
2022/10/19 05:47:03;;;;;;;9.45;2.15;;;9.30;99.90;;;;;;5136082;27;20046;-77
2022/10/19 05:49:29;;;;;;;12.45;2.00;;;9.30;99.90;;;;;;5154491;27;20042;-77
2022/10/19 05:51:55;;;;;;;7.68;2.00;;;9.30;99.90;;;;;;5155245;27;20094;-77
2022/10/19 05:54:21;;;;;;;7.60;1.60;;;9.30;99.90;;;;;;5136512;27;20106;-78
2022/10/19 05:56:47;;;;;;;10.75;1.70;;;9.30;99.90;;;;;;5136770;27;20051;-78
2022/10/19 05:59:16;;;;;;;8.45;1.73;;;9.30;99.90;;;;;;5119053;27;20125;-77
2022/10/19 06:01:42;;;;;;;12.50;1.77;;;9.30;99.90;;;;;;5121488;27;20062;-78
2022/10/19 06:04:09;;;;;;;9.57;1.45;;;9.30;99.90;;;;;;5123229;27;20216;-77
2022/10/19 06:06:35;;;;;;;11.18;1.40;;;9.40;99.90;;;;;;5140219;27;20126;-77
2022/10/19 06:09:01;;;;;;;7.75;1.38;;;9.30;99.90;;;;;;5140702;27;20085;-78
2022/10/19 06:11:29;;;;;;;8.68;1.20;;;9.30;99.90;;;;;;5123610;27;20055;-79
2022/10/19 06:13:58;;;;;;;11.45;1.70;;;9.40;99.90;;;;;;5139798;27;20103;-78
2022/10/19 06:16:25;;;;;;;13.23;1.67;;;9.40;99.90;;;;;;5141572;27;20563;-75
2022/10/19 06:18:52;;;;;;;11.18;2.10;;;9.40;99.90;;;;;;5159554;27;20046;-77
2022/10/19 06:21:20;;;;;;;16.63;1.85;;;9.50;99.90;;;;;;5140291;27;20157;-78
2022/10/19 06:23:50;;;;;;;9.02;1.55;;;9.50;99.90;;;;;;5158520;27;20082;-79
2022/10/19 06:26:15;;;;;;;6.57;1.50;;;9.50;99.90;;;;;;5123730;27;20490;-77
2022/10/19 06:28:43;;;;;;;9.10;1.13;;;9.50;99.90;;;;;;5123287;27;20148;-76
2022/10/19 06:31:09;;;;;;;10.52;1.38;;;9.50;99.90;;;;;;5160798;27;20054;-79
2022/10/19 06:33:36;;;;;;;5.80;1.17;;;9.50;99.90;;;;;;5141455;27;20042;-78
2022/10/19 06:36:19;;;;;;;14.02;1.50;;;9.50;99.90;;;;;;5124824;27;20042;-78
2022/10/19 06:38:45;;;;;;;13.23;1.40;;;9.60;99.90;;;;;;5159089;27;20039;-77
2022/10/19 06:41:11;;;;;;;9.68;1.13;;;9.70;99.90;;;;;;5158415;27;20049;-78
2022/10/19 06:43:37;;;;;;;14.30;1.80;;;9.70;99.90;;;;;;5158191;27;20066;-78
2022/10/19 06:46:08;;;;;;;11.13;2.00;;;9.70;99.90;;;;;;5158184;27;20495;-77
2022/10/19 06:48:35;;;;;;;9.60;1.73;;;9.80;99.90;;;;;;5158022;27;20482;-78
2022/10/19 06:51:03;;;;;;;7.97;1.05;;;9.80;99.90;;;;;;5122690;27;20103;-78
2022/10/19 06:53:30;;;;;;;13.50;1.27;;;9.80;99.90;;;;;;5158262;27;20058;-78
2022/10/19 06:56:04;;;;;;;8.73;1.30;;;9.80;99.90;;;;;;5157971;27;20081;-77
2022/10/19 06:58:34;;;;;;;10.05;1.70;;;9.90;99.90;;;;;;5157506;27;20054;-78
2022/10/19 07:01:00;;;;;;;9.60;0.70;;;9.90;99.90;;;;;;5139314;27;20039;-75
2022/10/19 07:03:27;;;;;;;15.10;1.20;;;9.90;99.90;;;;;;5138946;27;20047;-77
2022/10/19 07:05:59;;;;;;;8.68;0.90;;;9.90;99.90;;;;;;5139735;27;20131;-79
2022/10/19 07:08:26;;;;;;;11.38;0.95;;;10.00;99.90;;;;;;5140644;27;20043;-77
2022/10/19 07:10:56;;;;;;;8.13;1.17;;;10.00;99.90;;;;;;5157653;27;20051;-76
2022/10/19 07:13:22;;;;;;;17.48;1.58;;;10.00;99.90;;;;;;5138437;27;20043;-79
2022/10/19 07:15:48;;;;;;;14.27;1.27;;;10.10;99.90;;;;;;5138819;27;20055;-77
2022/10/19 07:18:14;;;;;;;11.90;0.82;;;10.10;99.90;;;;;;5138848;27;20043;-79
2022/10/19 07:20:40;;;;;;;5.27;1.07;;;10.20;99.90;;;;;;5162853;27;20110;-77
2022/10/19 07:23:07;;;;;;;9.95;0.80;;;10.20;99.90;;;;;;5151734;27;20449;-78
2022/10/19 07:25:32;;;;;;;10.93;0.75;;;10.20;99.90;;;;;;5176092;27;20127;-77
2022/10/19 07:27:58;;;;;;;8.75;0.80;;;10.20;99.90;;;;;;5151584;27;20054;-77
2022/10/19 07:30:24;;;;;;;11.45;1.10;;;10.20;99.90;;;;;;5161106;27;20039;-77
2022/10/19 07:32:49;;;;;;;8.30;0.75;;;10.20;99.90;;;;;;5159423;27;20046;-75
2022/10/19 07:35:15;;;;;;;11.02;1.52;;;10.30;99.90;;;;;;5140669;27;20050;-77
2022/10/19 07:37:41;;;;;;;13.27;1.60;;;10.30;99.90;;;;;;5140326;27;20043;-77
2022/10/19 07:40:07;;;;;;;9.35;0.90;;;10.40;99.90;;;;;;5140729;27;20038;-77
2022/10/19 07:42:36;;;;;;;11.38;1.90;;;10.40;99.90;;;;;;5139110;27;20064;-77
2022/10/19 07:45:02;;;;;;;17.35;1.52;;;10.50;99.90;;;;;;5158238;27;20038;-77
2022/10/19 07:47:28;;;;;;;25.30;3.00;;;10.50;99.90;;;;;;5158474;27;20047;-77
2022/10/19 07:49:54;;;;;;;16.80;2.97;;;10.60;99.90;;;;;;5159125;27;20819;-75
2022/10/19 07:52:19;;;;;;;17.17;3.45;;;10.70;99.90;;;;;;5123228;27;20047;-77
2022/10/19 07:54:48;;;;;;;13.55;1.88;;;10.70;99.90;;;;;;5158469;27;20118;-79
2022/10/19 07:57:14;;;;;;;14.13;1.42;;;10.80;99.90;;;;;;5157929;27;20043;-77
2022/10/19 07:59:40;;;;;;;10.03;0.80;;;10.80;99.90;;;;;;5138975;27;20450;-76
2022/10/19 08:02:13;;;;;;;11.55;0.70;;;10.80;99.90;;;;;;5157107;27;20053;-76
2022/10/19 08:04:39;;;;;;;13.43;1.40;;;10.80;99.90;;;;;;5138607;27;20053;-76
2022/10/19 08:07:05;;;;;;;10.13;1.15;;;10.90;99.90;;;;;;5156613;27;20133;-75
2022/10/19 08:09:30;;;;;;;10.15;1.05;;;10.90;99.90;;;;;;5138781;27;20042;-76
2022/10/19 08:11:56;;;;;;;11.75;0.82;;;10.90;99.90;;;;;;5138574;27;20529;-75
2022/10/19 08:14:23;;;;;;;9.23;0.88;;;10.90;99.90;;;;;;5145545;27;20102;-74
2022/10/19 08:16:52;;;;;;;15.57;1.35;;;11.00;99.90;;;;;;5128557;27;20074;-75
2022/10/19 08:19:18;;;;;;;5.72;0.90;;;11.00;99.90;;;;;;5124586;27;20039;-76
2022/10/19 08:21:45;;;;;;;9.50;0.75;;;11.00;99.90;;;;;;5160778;27;20055;-75
2022/10/19 08:24:13;;;;;;;11.82;0.85;;;11.10;99.90;;;;;;5162677;27;20051;-75
2022/10/19 08:26:39;;;;;;;13.93;0.80;;;11.10;99.90;;;;;;5162096;27;20050;-76
2022/10/19 08:29:14;;;;;;;15.27;0.80;;;11.10;99.90;;;;;;5171399;27;20126;-75
2022/10/19 08:31:42;;;;;;;11.30;1.17;;;11.10;99.90;;;;;;5121458;27;20099;-75
2022/10/19 08:34:08;;;;;;;11.32;0.65;;;11.20;99.90;;;;;;5140519;27;20062;-77
2022/10/19 08:36:34;;;;;;;8.30;0.60;;;11.40;99.90;;;;;;5157778;27;20042;-77
2022/10/19 08:39:01;;;;;;;11.80;0.70;;;11.40;99.90;;;;;;5156897;27;20107;-76
2022/10/19 08:41:39;;;;;;;;;;;11.30;99.90;;;;;;5174652;27;20328;-74
2022/10/19 08:44:17;;;;;;;15.10;0.98;;;11.30;99.90;;;;;;5172249;27;19991;-76
2022/10/19 08:47:09;;;;;;;5.53;0.47;;;11.40;99.90;;;;;;5171210;27;20047;-75
2022/10/19 08:49:38;;;;;;;13.82;0.70;;;11.50;99.90;;;;;;5169716;27;20053;-74
2022/10/19 08:52:11;;;;;;;16.58;0.80;;;11.80;99.90;;;;;;5134271;27;20058;-74
2022/10/19 08:54:48;;;;;;;12.82;0.95;;;11.70;99.90;;;;;;5133311;27;20046;-74
2022/10/19 08:57:21;;;;;;;10.02;0.50;;;11.70;99.90;;;;;;5167674;27;20121;-76
2022/10/19 09:00:12;;;;;;;6.50;0.50;;;11.80;99.90;;;;;;5170832;27;20035;-74
2022/10/19 09:03:06;;;;;;;9.70;0.60;;;11.90;99.90;;;;;;5169139;27;20050;-77
2022/10/19 09:05:45;;;;;;;11.43;0.60;;;12.00;99.90;;;;;;5152606;27;20148;-77
2022/10/19 09:08:11;;;;;;;12.68;0.70;;;12.20;99.90;;;;;;5134109;27;20043;-77
2022/10/19 09:10:42;;;;;;;14.27;0.60;;;;;;;;;;5151797;27;20400;-77
2022/10/19 09:13:35;;;;;;;8.43;0.50;;;12.60;99.90;;;;;;5150610;27;20058;-74
2022/10/19 09:16:03;;;;;;;9.48;0.60;;;12.80;99.90;;;;;;5149478;27;20067;-74
2022/10/19 09:18:32;;;;;;;12.93;1.08;;;12.80;99.90;;;;;;5131195;27;20151;-75
2022/10/19 09:21:14;;;;;;;14.98;1.15;;;12.80;99.90;;;;;;5149484;27;20059;-76
2022/10/19 09:23:49;;;;;;;12.60;0.52;;;12.90;99.90;;;;;;5168220;27;20106;-80
2022/10/19 09:26:21;;;;;;;9.00;1.25;;;12.90;99.90;;;;;;5148772;27;20050;-74
2022/10/19 09:29:07;;;;;;;7.25;0.60;;;12.90;99.90;;;;;;5172541;27;20031;-74
2022/10/19 09:31:39;;;;;;;15.45;0.50;;;12.90;99.90;;;;;;5153800;27;20047;-73
2022/10/19 09:34:38;;;;;;;10.18;0.80;;;13.00;99.90;;;;;;5145587;27;20046;-74
2022/10/19 09:37:04;;;;;;;11.27;0.70;;;13.00;99.90;;;;;;5088830;27;20110;-75
2022/10/19 09:39:30;;;;;;;9.75;0.60;;;13.10;99.90;;;;;;5164550;27;20077;-73
2022/10/19 09:42:12;;;;;;;9.95;0.80;;;13.10;99.90;;;;;;5127062;27;20083;-74
2022/10/19 09:44:38;;;;;;;9.52;0.80;;;13.10;99.90;;;;;;5145536;27;20054;-74
2022/10/19 09:47:33;;;;;;;9.98;0.70;;;13.10;99.90;;;;;;5162527;27;20107;-75
2022/10/19 09:50:18;;;;;;;9.15;0.63;;;13.20;99.90;;;;;;5138967;27;20046;-77
2022/10/19 09:52:58;;;;;;;12.15;0.88;;;13.20;99.90;;;;;;5156932;27;20039;-77
2022/10/19 09:55:43;;;;;;;13.65;1.00;;;13.30;99.90;;;;;;5121036;27;20133;-75
2022/10/19 09:58:19;;;;;;;7.68;0.93;;;13.30;99.90;;;;;;5155436;27;20042;-75
2022/10/19 10:00:50;;;;;;;12.50;0.98;;;13.40;99.90;;;;;;5158389;27;20041;-74
2022/10/19 10:03:31;;;;;;;6.25;0.68;;;13.50;99.90;;;;;;5131460;27;20106;-74
2022/10/19 10:06:23;;;;;;;8.85;0.52;;;13.50;99.90;;;;;;5142746;27;20081;-75
2022/10/19 10:08:57;;;;;;;7.25;0.80;;;13.50;99.90;;;;;;5167195;27;20050;-74
2022/10/19 10:11:30;;;;;;;6.47;0.80;;;13.40;99.90;;;;;;5146525;27;20085;-75
2022/10/19 10:13:59;;;;;;;4.90;0.65;;;13.50;99.90;;;;;;5165247;27;20047;-76
2022/10/19 10:16:29;;;;;;;5.82;0.63;;;13.60;99.90;;;;;;5145991;27;20050;-76
2022/10/19 10:18:59;;;;;;;5.10;0.55;;;;;;;;;;5166709;27;20050;-74
2022/10/19 10:21:30;;;;;;;9.15;0.85;;;;;;;;;;5169235;27;20054;-77
2022/10/19 10:24:12;;;;;;;8.45;0.85;;;14.00;99.90;;;;;;5167568;27;20066;-76
2022/10/19 10:26:49;;;;;;;6.35;0.60;;;14.00;99.90;;;;;;5153115;27;20051;-77
2022/10/19 10:29:24;;;;;;;6.07;0.63;;;14.00;99.90;;;;;;5152505;27;20054;-75
2022/10/19 10:32:20;;;;;;;9.32;0.68;;;13.90;99.90;;;;;;5147431;27;20050;-74
2022/10/19 10:35:05;;;;;;;7.93;0.60;;;13.80;99.90;;;;;;5140560;27;20412;-75
2022/10/19 10:37:43;;;;;;;10.35;0.85;;;13.80;99.90;;;;;;5112350;27;20094;-74
2022/10/19 10:40:26;;;;;;;11.55;0.80;;;13.60;99.90;;;;;;5130000;27;20042;-74
2022/10/19 10:42:56;;;;;;;6.43;0.50;;;13.60;99.90;;;;;;5165664;27;20042;-74
2022/10/19 10:45:31;;;;;;;8.27;0.70;;;13.50;99.90;;;;;;5113386;27;20043;-74
2022/10/19 10:47:59;;;;;;;11.60;0.60;;;13.50;99.90;;;;;;5169277;27;20078;-75
2022/10/19 10:50:33;;;;;;;8.63;0.50;;;13.40;99.90;;;;;;5171351;27;20042;-73
2022/10/19 10:53:25;;;;;;;9.98;0.60;;;13.40;99.90;;;;;;5152982;27;20050;-76
2022/10/19 10:55:55;;;;;;;5.03;0.40;;;13.50;99.90;;;;;;5171890;27;20053;-76
2022/10/19 10:58:40;;;;;;;10.95;0.85;;;13.50;99.90;;;;;;5118328;27;20055;-77
2022/10/19 11:01:17;;;;;;;5.88;0.50;;;13.60;99.90;;;;;;5165374;27;20078;-75
2022/10/19 11:03:50;;;;;;;10.48;0.70;;;13.80;99.90;;;;;;5171324;27;20042;-76
2022/10/19 11:06:17;;;;;;;6.93;0.60;;;13.90;99.90;;;;;;5169388;27;20066;-78
2022/10/19 11:09:07;;;;;;;11.93;1.00;;;14.00;99.90;;;;;;5149603;27;20046;-76
2022/10/19 11:11:42;;;;;;;8.55;0.60;;;;;;;;;;5168579;27;20050;-76
2022/10/19 11:14:20;;;;;;;9.02;0.80;;;14.10;99.90;;;;;;5168737;27;20138;-77
2022/10/19 11:16:48;;;;;;;7.20;0.90;;;14.00;99.90;;;;;;5168276;27;20070;-77
2022/10/19 11:19:23;;;;;;;6.22;0.63;;;13.90;99.90;;;;;;5131487;27;20097;-75
2022/10/19 11:22:07;;;;;;;8.23;0.80;;;13.90;99.90;;;;;;5168830;27;20066;-77
2022/10/19 11:24:56;;;;;;;8.32;0.73;;;14.00;99.90;;;;;;5168019;27;20051;-77
2022/10/19 11:27:33;;;;;;;8.18;0.75;;;14.00;99.90;;;;;;5082380;27;20431;-77
2022/10/19 11:30:13;;;;;;;5.63;1.20;;;14.00;99.90;;;;;;5149311;27;20050;-76
2022/10/19 11:32:56;;;;;;;7.78;0.60;;;13.90;99.90;;;;;;5168059;27;20394;-77
2022/10/19 11:35:48;;;;;;;8.32;1.00;;;13.80;99.90;;;;;;5167905;27;20043;-75
2022/10/19 11:38:33;;;;;;;10.02;0.90;;;13.70;99.90;;;;;;5167003;27;20106;-76
2022/10/19 11:41:29;;;;;;;7.00;0.73;;;13.60;99.90;;;;;;5165731;27;20118;-76
2022/10/19 11:44:14;;;;;;;7.72;0.90;;;13.50;99.90;;;;;;5166586;27;20066;-77
2022/10/19 11:47:06;;;;;;;8.30;0.90;;;13.50;99.90;;;;;;5171546;27;20050;-74
2022/10/19 11:49:54;;;;;;;8.77;1.08;;;13.60;99.90;;;;;;5147756;27;20051;-74
2022/10/19 11:53:06;;;;;;;9.25;0.85;;;13.70;99.90;;;;;;5148242;27;20497;-75
2022/10/19 11:55:40;;;;;;;5.90;0.80;;;13.70;99.90;;;;;;5126226;27;20099;-74
2022/10/19 11:58:25;;;;;;;8.10;1.30;;;13.70;99.90;;;;;;5168975;27;20054;-76
2022/10/19 12:01:18;;;;;;;6.47;1.00;;;13.70;99.90;;;;;;5147398;27;20050;-76
2022/10/19 12:04:11;;;;;;;7.53;0.80;;;13.80;99.90;;;;;;5148086;27;20054;-76
2022/10/19 12:07:08;;;;;;;7.75;1.00;;;13.80;99.90;;;;;;5132033;27;20098;-73
2022/10/19 12:09:40;;;;;;;4.40;0.85;;;13.70;99.90;;;;;;5099440;27;20485;-74
2022/10/19 12:12:20;;;;;;;9.13;1.30;;;13.80;99.90;;;;;;5147190;27;20058;-74
2022/10/19 12:14:50;;;;;;;6.40;1.38;;;13.80;99.90;;;;;;5166821;27;20050;-73
2022/10/19 12:17:26;;;;;;;10.38;1.08;;;13.80;99.90;;;;;;5167515;27;20462;-75
2022/10/19 12:20:00;;;;;;;9.73;1.10;;;13.80;99.90;;;;;;5131051;27;20035;-75
2022/10/19 12:22:29;;;;;;;8.40;0.77;;;13.70;99.90;;;;;;5169331;27;20291;-75
2022/10/19 12:24:59;;;;;;;9.57;1.10;;;13.70;99.90;;;;;;5131582;27;20380;-76
2022/10/19 12:27:34;;;;;;;10.18;0.90;;;13.60;99.90;;;;;;5151142;27;20066;-77
2022/10/19 12:30:14;;;;;;;9.18;0.90;;;13.50;99.90;;;;;;5149506;27;20047;-76
2022/10/19 12:33:01;;;;;;;8.45;0.85;;;13.50;99.90;;;;;;5168612;27;20042;-77
2022/10/19 12:35:49;;;;;;;10.07;1.00;;;13.60;99.90;;;;;;5167986;27;20042;-76
2022/10/19 12:38:36;;;;;;;7.35;0.90;;;13.60;99.90;;;;;;5173601;27;20068;-75
2022/10/19 12:41:11;;;;;;;10.25;0.80;;;13.50;99.90;;;;;;5155379;27;20038;-77
2022/10/19 12:44:26;;;;;;;6.63;1.20;;;13.50;99.90;;;;;;5152484;27;20078;-78
2022/10/19 12:47:07;;;;;;;10.63;1.20;;;13.40;99.90;;;;;;5078453;27;20143;-75
2022/10/19 12:49:35;;;;;;;9.20;1.13;;;13.40;99.90;;;;;;5139080;27;20389;-77
2022/10/19 12:52:02;;;;;;;10.15;1.27;;;13.30;99.90;;;;;;5168891;27;20046;-81
2022/10/19 12:54:30;;;;;;;8.20;1.00;;;13.30;99.90;;;;;;5169863;27;20054;-76
2022/10/19 12:56:59;;;;;;;7.57;0.80;;;13.20;99.90;;;;;;5168691;27;20060;-75
2022/10/19 12:59:34;;;;;;;6.68;1.00;;;13.20;99.90;;;;;;5169628;27;20046;-75
2022/10/19 13:02:04;;;;;;;9.43;1.40;;;13.10;99.90;;;;;;5167161;27;20046;-74
2022/10/19 13:04:34;;;;;;;9.77;1.55;;;13.10;99.90;;;;;;5115171;27;20046;-74
2022/10/19 13:07:04;;;;;;;5.18;1.17;;;13.10;99.90;;;;;;5149096;27;20153;-75
2022/10/19 13:09:43;;;;;;;8.82;1.30;;;13.10;99.90;;;;;;5164965;27;20085;-75
2022/10/19 13:12:12;;;;;;;11.93;1.98;;;13.10;99.90;;;;;;5148849;27;20050;-76
2022/10/19 13:14:59;;;;;;;6.60;1.33;;;13.10;99.90;;;;;;5149765;27;20054;-75
2022/10/19 13:17:39;;;;;;;8.73;1.50;;;13.10;99.90;;;;;;5169506;27;20046;-76